sensor_id;sensor_type;location;lat;lon;timestamp;pressure;altitude;pressure_sealevel;temperature;humidity
37610;BME280;23457;51.966;8.230;2023-07-20T00:00:00;100640.84;;;18.10;100.00
37610;BME280;23457;51.966;8.230;2023-07-20T00:02:27;100650.63;;;17.99;100.00
37610;BME280;23457;51.966;8.230;2023-07-20T00:04:54;100646.09;;;18.10;100.00
37610;BME280;23457;51.966;8.230;2023-07-20T00:07:20;100632.13;;;18.06;100.00
37610;BME280;23457;51.966;8.230;2023-07-20T00:09:47;100639.81;;;18.17;100.00
37610;BME280;23457;51.966;8.230;2023-07-20T00:12:14;100641.75;;;18.07;100.00
37610;BME280;23457;51.966;8.230;2023-07-20T00:14:41;100640.88;;;18.07;100.00
37610;BME280;23457;51.966;8.230;2023-07-20T00:17:07;100641.09;;;17.92;100.00
37610;BME280;23457;51.966;8.230;2023-07-20T00:19:34;100643.88;;;17.84;100.00
37610;BME280;23457;51.966;8.230;2023-07-20T00:22:01;100641.09;;;17.93;100.00
37610;BME280;23457;51.966;8.230;2023-07-20T00:24:28;100641.06;;;17.96;100.00
37610;BME280;23457;51.966;8.230;2023-07-20T00:26:54;100636.03;;;17.79;100.00
37610;BME280;23457;51.966;8.230;2023-07-20T00:29:21;100636.78;;;17.86;100.00
37610;BME280;23457;51.966;8.230;2023-07-20T00:31:48;100634.16;;;17.86;100.00
37610;BME280;23457;51.966;8.230;2023-07-20T00:34:17;100636.72;;;17.92;100.00
37610;BME280;23457;51.966;8.230;2023-07-20T00:36:44;100630.44;;;18.01;100.00
37610;BME280;23457;51.966;8.230;2023-07-20T00:39:11;100632.84;;;18.14;100.00
37610;BME280;23457;51.966;8.230;2023-07-20T00:41:37;100628.47;;;18.13;100.00
37610;BME280;23457;51.966;8.230;2023-07-20T00:44:04;100634.09;;;17.90;100.00
37610;BME280;23457;51.966;8.230;2023-07-20T00:46:32;100633.25;;;17.90;100.00
37610;BME280;23457;51.966;8.230;2023-07-20T00:49:00;100629.75;;;17.88;100.00
37610;BME280;23457;51.966;8.230;2023-07-20T00:51:27;100626.16;;;17.95;100.00
37610;BME280;23457;51.966;8.230;2023-07-20T00:53:54;100627.78;;;18.02;100.00
37610;BME280;23457;51.966;8.230;2023-07-20T00:56:21;100624.47;;;17.91;100.00
37610;BME280;23457;51.966;8.230;2023-07-20T00:58:48;100625.53;;;17.79;100.00
37610;BME280;23457;51.966;8.230;2023-07-20T01:01:15;100627.22;;;17.83;100.00
37610;BME280;23457;51.966;8.230;2023-07-20T01:03:42;100622.88;;;17.79;100.00
37610;BME280;23457;51.966;8.230;2023-07-20T01:08:50;100620.19;;;17.84;100.00
37610;BME280;23457;51.966;8.230;2023-07-20T01:12:05;100613.94;;;17.93;100.00
37610;BME280;23457;51.966;8.230;2023-07-20T01:14:34;100611.31;;;17.91;100.00
37610;BME280;23457;51.966;8.230;2023-07-20T01:17:02;100617.56;;;17.84;100.00
37610;BME280;23457;51.966;8.230;2023-07-20T01:19:29;100624.56;;;17.85;100.00
37610;BME280;23457;51.966;8.230;2023-07-20T01:22:03;100621.38;;;17.63;100.00
37610;BME280;23457;51.966;8.230;2023-07-20T01:24:57;100621.25;;;17.72;100.00
37610;BME280;23457;51.966;8.230;2023-07-20T01:28:09;100626.53;;;17.71;100.00
37610;BME280;23457;51.966;8.230;2023-07-20T01:33:21;100619.66;;;17.59;100.00
37610;BME280;23457;51.966;8.230;2023-07-20T01:35:53;100619.63;;;17.64;100.00
37610;BME280;23457;51.966;8.230;2023-07-20T01:38:21;100626.69;;;17.59;100.00
37610;BME280;23457;51.966;8.230;2023-07-20T01:40:48;100628.44;;;17.57;100.00
37610;BME280;23457;51.966;8.230;2023-07-20T01:43:16;100624.09;;;17.55;100.00
37610;BME280;23457;51.966;8.230;2023-07-20T01:45:43;100615.47;;;17.46;100.00
37610;BME280;23457;51.966;8.230;2023-07-20T01:48:10;100619.72;;;17.54;100.00
37610;BME280;23457;51.966;8.230;2023-07-20T01:50:37;100615.44;;;17.47;100.00
37610;BME280;23457;51.966;8.230;2023-07-20T01:53:03;100616.53;;;17.31;100.00
37610;BME280;23457;51.966;8.230;2023-07-20T01:55:30;100612.94;;;17.37;100.00
37610;BME280;23457;51.966;8.230;2023-07-20T01:57:57;100620.09;;;17.27;100.00
37610;BME280;23457;51.966;8.230;2023-07-20T02:00:26;100607.78;;;17.32;100.00
37610;BME280;23457;51.966;8.230;2023-07-20T02:02:53;100624.47;;;17.25;100.00
37610;BME280;23457;51.966;8.230;2023-07-20T02:05:20;100616.59;;;17.25;100.00
37610;BME280;23457;51.966;8.230;2023-07-20T02:07:47;100612.19;;;17.29;100.00
37610;BME280;23457;51.966;8.230;2023-07-20T02:10:18;100619.22;;;17.27;100.00
37610;BME280;23457;51.966;8.230;2023-07-20T02:12:45;100612.22;;;17.26;100.00
37610;BME280;23457;51.966;8.230;2023-07-20T02:15:12;100619.06;;;17.37;100.00
37610;BME280;23457;51.966;8.230;2023-07-20T02:17:40;100611.91;;;17.48;100.00
37610;BME280;23457;51.966;8.230;2023-07-20T02:20:08;100619.22;;;17.25;100.00
37610;BME280;23457;51.966;8.230;2023-07-20T02:22:37;100611.41;;;17.22;100.00
37610;BME280;23457;51.966;8.230;2023-07-20T02:25:05;100609.66;;;17.21;100.00
37610;BME280;23457;51.966;8.230;2023-07-20T02:27:31;100604.19;;;17.36;100.00
37610;BME280;23457;51.966;8.230;2023-07-20T02:29:58;100605.03;;;17.40;100.00
37610;BME280;23457;51.966;8.230;2023-07-20T02:32:25;100600.63;;;17.42;100.00
37610;BME280;23457;51.966;8.230;2023-07-20T02:34:52;100602.31;;;17.47;100.00
37610;BME280;23457;51.966;8.230;2023-07-20T02:37:19;100598.78;;;17.48;100.00
37610;BME280;23457;51.966;8.230;2023-07-20T02:39:46;100599.81;;;17.37;100.00
37610;BME280;23457;51.966;8.230;2023-07-20T02:42:13;100604.19;;;17.36;100.00
37610;BME280;23457;51.966;8.230;2023-07-20T02:44:40;100604.94;;;17.47;100.00
37610;BME280;23457;51.966;8.230;2023-07-20T02:47:07;100600.66;;;17.40;100.00
37610;BME280;23457;51.966;8.230;2023-07-20T02:49:34;100604.16;;;17.39;100.00
37610;BME280;23457;51.966;8.230;2023-07-20T02:52:01;100611.31;;;17.30;100.00
37610;BME280;23457;51.966;8.230;2023-07-20T02:54:28;100610.59;;;17.17;100.00
37610;BME280;23457;51.966;8.230;2023-07-20T02:56:56;100611.34;;;17.25;100.00
37610;BME280;23457;51.966;8.230;2023-07-20T02:59:23;100604.34;;;17.24;100.00
37610;BME280;23457;51.966;8.230;2023-07-20T03:01:50;100610.31;;;17.37;100.00
37610;BME280;23457;51.966;8.230;2023-07-20T03:04:17;100621.63;;;17.43;100.00
37610;BME280;23457;51.966;8.230;2023-07-20T03:06:43;100629.56;;;17.37;100.00
37610;BME280;23457;51.966;8.230;2023-07-20T03:09:10;100630.59;;;17.27;100.00
37610;BME280;23457;51.966;8.230;2023-07-20T03:11:37;100634.13;;;17.23;100.00
37610;BME280;23457;51.966;8.230;2023-07-20T03:14:04;100627.81;;;17.38;100.00
37610;BME280;23457;51.966;8.230;2023-07-20T03:16:30;100638.41;;;17.33;100.00
37610;BME280;23457;51.966;8.230;2023-07-20T03:19:00;100648.97;;;17.29;100.00
37610;BME280;23457;51.966;8.230;2023-07-20T03:21:28;100639.47;;;17.17;100.00
37610;BME280;23457;51.966;8.230;2023-07-20T03:23:55;100645.59;;;17.17;100.00
37610;BME280;23457;51.966;8.230;2023-07-20T03:26:22;100648.53;;;16.90;100.00
37610;BME280;23457;51.966;8.230;2023-07-20T03:28:50;100646.63;;;17.06;100.00
37610;BME280;23457;51.966;8.230;2023-07-20T03:31:16;100646.06;;;16.73;100.00
37610;BME280;23457;51.966;8.230;2023-07-20T03:33:44;100647.56;;;16.97;100.00
37610;BME280;23457;51.966;8.230;2023-07-20T03:36:10;100646.25;;;16.54;100.00
37610;BME280;23457;51.966;8.230;2023-07-20T03:38:37;100642.53;;;16.80;100.00
37610;BME280;23457;51.966;8.230;2023-07-20T03:41:04;100646.25;;;16.55;100.00
37610;BME280;23457;51.966;8.230;2023-07-20T03:43:31;100645.50;;;16.41;100.00
37610;BME280;23457;51.966;8.230;2023-07-20T03:45:57;100649.03;;;16.37;100.00
37610;BME280;23457;51.966;8.230;2023-07-20T03:48:24;100637.00;;;16.10;100.00
37610;BME280;23457;51.966;8.230;2023-07-20T03:50:53;100648.13;;;16.41;100.00
37610;BME280;23457;51.966;8.230;2023-07-20T03:53:20;100642.78;;;16.52;100.00
37610;BME280;23457;51.966;8.230;2023-07-20T03:55:51;100655.84;;;16.56;100.00
37610;BME280;23457;51.966;8.230;2023-07-20T03:58:19;100651.53;;;16.49;100.00
37610;BME280;23457;51.966;8.230;2023-07-20T04:00:47;100652.31;;;16.60;100.00
37610;BME280;23457;51.966;8.230;2023-07-20T04:03:14;100654.22;;;16.43;100.00
37610;BME280;23457;51.966;8.230;2023-07-20T04:05:42;100661.22;;;16.44;100.00
37610;BME280;23457;51.966;8.230;2023-07-20T04:08:09;100657.97;;;16.11;100.00
37610;BME280;23457;51.966;8.230;2023-07-20T04:10:38;100657.06;;;16.19;100.00
37610;BME280;23457;51.966;8.230;2023-07-20T04:13:05;100657.16;;;16.02;100.00
37610;BME280;23457;51.966;8.230;2023-07-20T04:15:32;100663.22;;;16.11;100.00
37610;BME280;23457;51.966;8.230;2023-07-20T04:17:59;100665.13;;;15.91;100.00
37610;BME280;23457;51.966;8.230;2023-07-20T04:20:27;100665.91;;;16.01;100.00
37610;BME280;23457;51.966;8.230;2023-07-20T04:22:54;100675.44;;;16.12;100.00
37610;BME280;23457;51.966;8.230;2023-07-20T04:25:21;100675.44;;;16.12;100.00
37610;BME280;23457;51.966;8.230;2023-07-20T04:27:48;100685.94;;;16.12;100.00
37610;BME280;23457;51.966;8.230;2023-07-20T04:30:17;100680.59;;;16.22;100.00
37610;BME280;23457;51.966;8.230;2023-07-20T04:32:46;100684.06;;;16.30;100.00
37610;BME280;23457;51.966;8.230;2023-07-20T04:35:21;100687.66;;;16.13;100.00
37610;BME280;23457;51.966;8.230;2023-07-20T04:38:04;100689.38;;;16.21;100.00
37610;BME280;23457;51.966;8.230;2023-07-20T04:40:31;100688.50;;;16.20;100.00
37610;BME280;23457;51.966;8.230;2023-07-20T04:42:58;100695.44;;;16.24;100.00
37610;BME280;23457;51.966;8.230;2023-07-20T04:45:24;100700.75;;;16.20;100.00
37610;BME280;23457;51.966;8.230;2023-07-20T04:47:51;100705.06;;;16.24;100.00
37610;BME280;23457;51.966;8.230;2023-07-20T04:50:19;100694.69;;;16.10;100.00
37610;BME280;23457;51.966;8.230;2023-07-20T04:52:45;100700.69;;;16.24;100.00
37610;BME280;23457;51.966;8.230;2023-07-20T04:55:16;100701.66;;;16.09;100.00
37610;BME280;23457;51.966;8.230;2023-07-20T04:57:43;100699.13;;;15.96;100.00
37610;BME280;23457;51.966;8.230;2023-07-20T05:00:10;100695.47;;;16.21;100.00
37610;BME280;23457;51.966;8.230;2023-07-20T05:02:38;100697.19;;;16.30;100.00
37610;BME280;23457;51.966;8.230;2023-07-20T05:05:06;100692.72;;;16.39;100.00
37610;BME280;23457;51.966;8.230;2023-07-20T05:07:33;100697.84;;;16.53;100.00
37610;BME280;23457;51.966;8.230;2023-07-20T05:10:00;100708.28;;;16.62;100.00
37610;BME280;23457;51.966;8.230;2023-07-20T05:12:28;100700.47;;;16.55;100.00
37610;BME280;23457;51.966;8.230;2023-07-20T05:14:55;100710.09;;;16.54;100.00
37610;BME280;23457;51.966;8.230;2023-07-20T05:17:21;100709.31;;;16.41;100.00
37610;BME280;23457;51.966;8.230;2023-07-20T05:19:48;100709.31;;;16.41;100.00
37610;BME280;23457;51.966;8.230;2023-07-20T05:22:15;100712.91;;;16.28;100.00
37610;BME280;23457;51.966;8.230;2023-07-20T05:24:41;100703.22;;;16.35;100.00
37610;BME280;23457;51.966;8.230;2023-07-20T05:27:08;100715.50;;;16.33;100.00
37610;BME280;23457;51.966;8.230;2023-07-20T05:29:35;100709.41;;;16.32;100.00
37610;BME280;23457;51.966;8.230;2023-07-20T05:32:01;100704.34;;;16.03;100.00
37610;BME280;23457;51.966;8.230;2023-07-20T05:34:29;100709.66;;;15.93;100.00
37610;BME280;23457;51.966;8.230;2023-07-20T05:36:56;100713.97;;;16.04;100.00
37610;BME280;23457;51.966;8.230;2023-07-20T05:39:22;100720.88;;;16.15;100.00
37610;BME280;23457;51.966;8.230;2023-07-20T05:41:49;100712.13;;;16.19;100.00
37610;BME280;23457;51.966;8.230;2023-07-20T05:44:16;100716.34;;;16.35;100.00
37610;BME280;23457;51.966;8.230;2023-07-20T05:46:42;100718.19;;;16.24;100.00
37610;BME280;23457;51.966;8.230;2023-07-20T05:49:22;100720.69;;;16.43;100.00
37610;BME280;23457;51.966;8.230;2023-07-20T05:51:49;100722.47;;;16.37;100.00
37610;BME280;23457;51.966;8.230;2023-07-20T05:54:16;100723.56;;;16.04;100.00
37610;BME280;23457;51.966;8.230;2023-07-20T05:56:42;100724.28;;;16.26;100.00
37610;BME280;23457;51.966;8.230;2023-07-20T05:59:09;100722.53;;;16.25;100.00
37610;BME280;23457;51.966;8.230;2023-07-20T06:01:36;100725.84;;;16.51;100.00
37610;BME280;23457;51.966;8.230;2023-07-20T06:04:03;100724.47;;;16.01;100.00
37610;BME280;23457;51.966;8.230;2023-07-20T06:06:30;100740.03;;;16.23;100.00
37610;BME280;23457;51.966;8.230;2023-07-20T06:08:57;100737.25;;;16.47;100.00
37610;BME280;23457;51.966;8.230;2023-07-20T06:11:23;100741.66;;;16.45;100.00
37610;BME280;23457;51.966;8.230;2023-07-20T06:13:50;100745.97;;;16.51;100.00
37610;BME280;23457;51.966;8.230;2023-07-20T06:16:16;100746.78;;;16.63;100.00
37610;BME280;23457;51.966;8.230;2023-07-20T06:18:43;100745.88;;;16.61;100.00
37610;BME280;23457;51.966;8.230;2023-07-20T06:21:11;100748.81;;;16.20;100.00
37610;BME280;23457;51.966;8.230;2023-07-20T06:23:38;100754.69;;;16.51;100.00
37610;BME280;23457;51.966;8.230;2023-07-20T06:26:08;100756.28;;;16.76;100.00
37610;BME280;23457;51.966;8.230;2023-07-20T06:28:35;100754.63;;;16.68;100.00
37610;BME280;23457;51.966;8.230;2023-07-20T06:31:03;100757.94;;;16.88;100.00
37610;BME280;23457;51.966;8.230;2023-07-20T06:33:30;100765.22;;;16.48;100.00
37610;BME280;23457;51.966;8.230;2023-07-20T06:35:57;100760.72;;;16.71;100.00
37610;BME280;23457;51.966;8.230;2023-07-20T06:38:24;100758.03;;;16.77;100.00
37610;BME280;23457;51.966;8.230;2023-07-20T06:40:54;100755.13;;;17.08;100.00
37610;BME280;23457;51.966;8.230;2023-07-20T06:43:20;100762.91;;;17.15;100.00
37610;BME280;23457;51.966;8.230;2023-07-20T06:45:53;100758.56;;;17.10;100.00
37610;BME280;23457;51.966;8.230;2023-07-20T06:48:21;100766.28;;;17.30;100.00
37610;BME280;23457;51.966;8.230;2023-07-20T06:50:48;100767.00;;;17.42;100.00
37610;BME280;23457;51.966;8.230;2023-07-20T06:53:14;100766.75;;;16.81;100.00
37610;BME280;23457;51.966;8.230;2023-07-20T06:55:44;100765.69;;;17.00;100.00
37610;BME280;23457;51.966;8.230;2023-07-20T06:58:16;100757.06;;;16.88;100.00
37610;BME280;23457;51.966;8.230;2023-07-20T07:00:44;100762.25;;;16.97;100.00
37610;BME280;23457;51.966;8.230;2023-07-20T07:03:11;100763.91;;;17.04;100.00
37610;BME280;23457;51.966;8.230;2023-07-20T07:05:38;100773.00;;;16.63;100.00
37610;BME280;23457;51.966;8.230;2023-07-20T07:08:05;100772.00;;;16.82;100.00
37610;BME280;23457;51.966;8.230;2023-07-20T07:10:35;100784.94;;;16.98;100.00
37610;BME280;23457;51.966;8.230;2023-07-20T07:13:03;100783.91;;;17.17;100.00
37610;BME280;23457;51.966;8.230;2023-07-20T07:15:31;100782.06;;;17.25;100.00
37610;BME280;23457;51.966;8.230;2023-07-20T07:17:59;100782.78;;;17.42;100.00
37610;BME280;23457;51.966;8.230;2023-07-20T07:20:26;100777.41;;;17.51;100.00
37610;BME280;23457;51.966;8.230;2023-07-20T07:22:52;100794.13;;;17.47;96.96
37610;BME280;23457;51.966;8.230;2023-07-20T07:25:19;100786.03;;;17.66;93.46
37610;BME280;23457;51.966;8.230;2023-07-20T07:27:49;100791.31;;;17.64;91.84
37610;BME280;23457;51.966;8.230;2023-07-20T07:30:16;100788.53;;;17.76;93.90
37610;BME280;23457;51.966;8.230;2023-07-20T07:32:42;100792.09;;;17.72;95.44
37610;BME280;23457;51.966;8.230;2023-07-20T07:35:09;100784.25;;;17.68;100.00
37610;BME280;23457;51.966;8.230;2023-07-20T07:37:36;100793.06;;;17.61;100.00
37610;BME280;23457;51.966;8.230;2023-07-20T07:40:23;100793.44;;;17.27;100.00
37610;BME280;23457;51.966;8.230;2023-07-20T07:42:50;100799.53;;;17.29;100.00
37610;BME280;23457;51.966;8.230;2023-07-20T07:45:17;100805.69;;;17.28;100.00
37610;BME280;23457;51.966;8.230;2023-07-20T07:47:45;100809.16;;;17.32;100.00
37610;BME280;23457;51.966;8.230;2023-07-20T07:50:12;100812.56;;;17.41;100.00
37610;BME280;23457;51.966;8.230;2023-07-20T07:52:39;100813.25;;;17.59;100.00
37610;BME280;23457;51.966;8.230;2023-07-20T07:55:06;100821.06;;;17.66;100.00
37610;BME280;23457;51.966;8.230;2023-07-20T07:57:32;100822.06;;;17.54;100.00
37610;BME280;23457;51.966;8.230;2023-07-20T07:59:59;100810.84;;;17.37;100.00
37610;BME280;23457;51.966;8.230;2023-07-20T08:02:26;100814.19;;;17.51;100.00
37610;BME280;23457;51.966;8.230;2023-07-20T08:04:53;100820.97;;;17.74;100.00
37610;BME280;23457;51.966;8.230;2023-07-20T08:07:19;100831.31;;;17.89;88.58
37610;BME280;23457;51.966;8.230;2023-07-20T08:09:46;100821.78;;;17.80;93.10
37610;BME280;23457;51.966;8.230;2023-07-20T08:12:12;100813.25;;;17.60;91.66
37610;BME280;23457;51.966;8.230;2023-07-20T08:14:40;100825.34;;;17.76;83.41
37610;BME280;23457;51.966;8.230;2023-07-20T08:17:06;100822.03;;;18.28;81.40
37610;BME280;23457;51.966;8.230;2023-07-20T08:19:33;100820.84;;;18.50;83.47
37610;BME280;23457;51.966;8.230;2023-07-20T08:22:01;100813.91;;;18.46;82.97
37610;BME280;23457;51.966;8.230;2023-07-20T08:24:29;100813.78;;;18.52;88.02
37610;BME280;23457;51.966;8.230;2023-07-20T08:26:55;100810.50;;;18.37;81.61
37610;BME280;23457;51.966;8.230;2023-07-20T08:29:23;100813.03;;;18.44;84.13
37610;BME280;23457;51.966;8.230;2023-07-20T08:31:50;100824.09;;;18.69;71.83
37610;BME280;23457;51.966;8.230;2023-07-20T08:34:17;100818.03;;;18.64;71.62
37610;BME280;23457;51.966;8.230;2023-07-20T08:36:57;100818.19;;;18.52;78.49
37610;BME280;23457;51.966;8.230;2023-07-20T08:39:25;100820.44;;;18.79;78.46
37610;BME280;23457;51.966;8.230;2023-07-20T08:41:51;100818.78;;;18.74;79.40
37610;BME280;23457;51.966;8.230;2023-07-20T08:44:19;100815.50;;;18.59;79.38
37610;BME280;23457;51.966;8.230;2023-07-20T08:46:47;100822.34;;;18.70;78.25
37610;BME280;23457;51.966;8.230;2023-07-20T08:49:16;100823.22;;;18.70;80.30
37610;BME280;23457;51.966;8.230;2023-07-20T08:51:45;100821.66;;;18.54;80.56
37610;BME280;23457;51.966;8.230;2023-07-20T08:54:13;100824.44;;;18.45;78.98
37610;BME280;23457;51.966;8.230;2023-07-20T08:56:40;100831.59;;;18.35;74.89
37610;BME280;23457;51.966;8.230;2023-07-20T08:59:12;100821.66;;;18.54;67.88
37610;BME280;23457;51.966;8.230;2023-07-20T09:01:41;100828.56;;;18.64;71.53
37610;BME280;23457;51.966;8.230;2023-07-20T09:04:08;100835.06;;;18.99;63.89
37610;BME280;23457;51.966;8.230;2023-07-20T09:06:35;100831.81;;;19.32;67.26
37610;BME280;23457;51.966;8.230;2023-07-20T09:09:01;100830.06;;;19.32;73.30
37610;BME280;23457;51.966;8.230;2023-07-20T09:11:29;100829.69;;;19.54;73.37
37610;BME280;23457;51.966;8.230;2023-07-20T09:14:09;100818.94;;;19.64;75.07
37610;BME280;23457;51.966;8.230;2023-07-20T09:17:06;100823.38;;;19.62;77.44
37610;BME280;23457;51.966;8.230;2023-07-20T09:19:38;100828.06;;;19.45;75.05
37610;BME280;23457;51.966;8.230;2023-07-20T09:22:05;100825.75;;;19.27;74.45
37610;BME280;23457;51.966;8.230;2023-07-20T09:24:32;100829.84;;;19.43;74.25
37610;BME280;23457;51.966;8.230;2023-07-20T09:27:01;100830.66;;;19.50;73.16
37610;BME280;23457;51.966;8.230;2023-07-20T09:29:30;100822.94;;;19.84;69.97
37610;BME280;23457;51.966;8.230;2023-07-20T09:32:01;100834.72;;;20.09;67.98
37610;BME280;23457;51.966;8.230;2023-07-20T09:34:29;100837.22;;;20.15;61.79
37610;BME280;23457;51.966;8.230;2023-07-20T09:37:01;100828.41;;;20.16;61.00
37610;BME280;23457;51.966;8.230;2023-07-20T09:39:32;100822.59;;;20.42;64.42
37610;BME280;23457;51.966;8.230;2023-07-20T09:42:01;100824.03;;;20.55;68.40
37610;BME280;23457;51.966;8.230;2023-07-20T09:44:31;100815.50;;;20.81;66.99
37610;BME280;23457;51.966;8.230;2023-07-20T09:47:03;100825.81;;;20.92;60.57
37610;BME280;23457;51.966;8.230;2023-07-20T09:49:30;100826.59;;;20.60;69.32
37610;BME280;23457;51.966;8.230;2023-07-20T09:52:17;100831.94;;;20.15;65.17
37610;BME280;23457;51.966;8.230;2023-07-20T09:55:06;100820.03;;;20.39;67.48
37610;BME280;23457;51.966;8.230;2023-07-20T09:57:34;100827.19;;;20.71;64.48
37610;BME280;23457;51.966;8.230;2023-07-20T10:00:03;100826.66;;;20.92;67.61
37610;BME280;23457;51.966;8.230;2023-07-20T10:02:42;100819.69;;;21.27;64.91
37610;BME280;23457;51.966;8.230;2023-07-20T10:05:13;100824.09;;;21.59;60.38
37610;BME280;23457;51.966;8.230;2023-07-20T10:07:47;100830.72;;;21.73;65.28
37610;BME280;23457;51.966;8.230;2023-07-20T10:10:15;100821.22;;;21.00;61.92
37610;BME280;23457;51.966;8.230;2023-07-20T10:12:48;100827.19;;;21.06;60.18
37610;BME280;23457;51.966;8.230;2023-07-20T10:15:22;100825.69;;;20.96;56.90
37610;BME280;23457;51.966;8.230;2023-07-20T10:18:07;100832.13;;;20.86;54.57
37610;BME280;23457;51.966;8.230;2023-07-20T10:20:39;100834.16;;;20.35;56.66
37610;BME280;23457;51.966;8.230;2023-07-20T10:23:29;100832.84;;;20.56;59.80
37610;BME280;23457;51.966;8.230;2023-07-20T10:25:57;100819.88;;;20.82;60.50
37610;BME280;23457;51.966;8.230;2023-07-20T10:28:27;100829.25;;;20.95;57.50
37610;BME280;23457;51.966;8.230;2023-07-20T10:30:54;100820.94;;;20.75;62.28
37610;BME280;23457;51.966;8.230;2023-07-20T10:33:21;100821.03;;;20.72;59.48
37610;BME280;23457;51.966;8.230;2023-07-20T10:36:06;100818.19;;;20.80;64.17
37610;BME280;23457;51.966;8.230;2023-07-20T10:43:46;100814.13;;;21.36;61.40
37610;BME280;23457;51.966;8.230;2023-07-20T10:46:13;100802.81;;;21.63;52.34
37610;BME280;23457;51.966;8.230;2023-07-20T10:49:00;100806.00;;;21.74;57.75
37610;BME280;23457;51.966;8.230;2023-07-20T10:51:40;100806.59;;;21.84;58.11
37610;BME280;23457;51.966;8.230;2023-07-20T10:59:42;100811.78;;;22.18;57.97
37610;BME280;23457;51.966;8.230;2023-07-20T11:02:10;100810.06;;;22.17;52.03
37610;BME280;23457;51.966;8.230;2023-07-20T11:04:45;100803.06;;;22.16;54.24
37610;BME280;23457;51.966;8.230;2023-07-20T11:07:36;100808.78;;;22.58;55.21
37610;BME280;23457;51.966;8.230;2023-07-20T11:10:22;100813.50;;;22.78;53.51
37610;BME280;23457;51.966;8.230;2023-07-20T11:18:14;100806.34;;;22.24;54.08
37610;BME280;23457;51.966;8.230;2023-07-20T11:20:41;100814.97;;;22.29;54.11
37610;BME280;23457;51.966;8.230;2023-07-20T11:23:09;100811.66;;;21.92;53.48
37610;BME280;23457;51.966;8.230;2023-07-20T11:25:39;100803.81;;;22.20;50.81
37610;BME280;23457;51.966;8.230;2023-07-20T11:28:08;100799.75;;;22.65;54.69
37610;BME280;23457;51.966;8.230;2023-07-20T11:30:38;100811.81;;;23.02;53.74
37610;BME280;23457;51.966;8.230;2023-07-20T11:33:08;100811.91;;;22.71;54.99
37610;BME280;23457;51.966;8.230;2023-07-20T11:35:36;100814.94;;;22.03;51.31
37610;BME280;23457;51.966;8.230;2023-07-20T11:38:08;100808.25;;;21.88;52.65
37610;BME280;23457;51.966;8.230;2023-07-20T11:40:35;100809.50;;;21.76;52.40
37610;BME280;23457;51.966;8.230;2023-07-20T11:43:01;100810.69;;;21.96;51.40
37610;BME280;23457;51.966;8.230;2023-07-20T11:45:31;100796.16;;;22.10;53.12
37610;BME280;23457;51.966;8.230;2023-07-20T11:47:59;100793.31;;;22.44;52.46
37610;BME280;23457;51.966;8.230;2023-07-20T11:50:26;100796.38;;;22.88;50.71
37610;BME280;23457;51.966;8.230;2023-07-20T11:52:53;100790.19;;;23.14;46.81
37610;BME280;23457;51.966;8.230;2023-07-20T11:55:20;100786.16;;;23.02;47.60
37610;BME280;23457;51.966;8.230;2023-07-20T11:58:06;100789.50;;;23.07;51.51
37610;BME280;23457;51.966;8.230;2023-07-20T12:00:34;100789.38;;;23.37;50.33
37610;BME280;23457;51.966;8.230;2023-07-20T12:03:04;100789.63;;;23.55;52.29
37610;BME280;23457;51.966;8.230;2023-07-20T12:05:34;100778.25;;;23.75;48.57
37610;BME280;23457;51.966;8.230;2023-07-20T12:08:21;100780.34;;;23.67;49.49
37610;BME280;23457;51.966;8.230;2023-07-20T12:10:48;100786.16;;;23.02;48.98
37610;BME280;23457;51.966;8.230;2023-07-20T12:13:15;100786.59;;;22.90;48.16
37610;BME280;23457;51.966;8.230;2023-07-20T12:15:41;100778.88;;;22.82;48.37
37610;BME280;23457;51.966;8.230;2023-07-20T12:18:09;100790.00;;;22.66;46.94
37610;BME280;23457;51.966;8.230;2023-07-20T12:20:36;100787.16;;;22.72;48.89
37610;BME280;23457;51.966;8.230;2023-07-20T12:23:12;100781.94;;;22.69;47.38
37610;BME280;23457;51.966;8.230;2023-07-20T12:25:45;100785.63;;;22.37;49.63
37610;BME280;23457;51.966;8.230;2023-07-20T12:28:16;100779.19;;;22.72;48.49
37610;BME280;23457;51.966;8.230;2023-07-20T12:30:45;100767.38;;;23.08;51.18
37610;BME280;23457;51.966;8.230;2023-07-20T12:33:12;100767.72;;;23.49;49.84
37610;BME280;23457;51.966;8.230;2023-07-20T12:35:42;100767.53;;;24.25;47.71
37610;BME280;23457;51.966;8.230;2023-07-20T12:38:12;100770.19;;;23.55;45.16
37610;BME280;23457;51.966;8.230;2023-07-20T12:40:39;100772.97;;;23.26;49.35
37610;BME280;23457;51.966;8.230;2023-07-20T12:43:07;100768.97;;;23.14;49.66
37610;BME280;23457;51.966;8.230;2023-07-20T12:45:34;100773.34;;;22.90;46.77
37610;BME280;23457;51.966;8.230;2023-07-20T12:48:00;100767.63;;;22.48;47.25
37610;BME280;23457;51.966;8.230;2023-07-20T12:50:27;100762.94;;;23.09;49.11
37610;BME280;23457;51.966;8.230;2023-07-20T12:52:54;100763.31;;;22.98;46.36
37610;BME280;23457;51.966;8.230;2023-07-20T12:55:20;100759.28;;;23.38;50.74
37610;BME280;23457;51.966;8.230;2023-07-20T12:57:47;100754.13;;;23.58;45.71
37610;BME280;23457;51.966;8.230;2023-07-20T13:00:15;100749.53;;;23.63;44.29
37610;BME280;23457;51.966;8.230;2023-07-20T13:02:42;100750.81;;;23.53;46.65
37610;BME280;23457;51.966;8.230;2023-07-20T13:05:10;100750.03;;;23.73;48.26
37610;BME280;23457;51.966;8.230;2023-07-20T13:07:38;100741.69;;;24.50;47.97
37610;BME280;23457;51.966;8.230;2023-07-20T13:10:10;100748.97;;;24.45;44.89
37610;BME280;23457;51.966;8.230;2023-07-20T13:12:38;100746.84;;;24.10;44.21